KMCD

Mackinac Island Airport

Mackinac Island, Michigan, USA
METAR KMCD 161035Z AUTO 04008KT 10SM CLR M13/M16 A2991 RMK AO2 T11291162
Observed Flight Rules
Dec-16 @ 10:35 UTC (34 minutes ago) Visual Flight Rules
Wind Visibility Clouds
40° at 8 knots 10 miles
  • Clear skies
Temperatures Readings
Current -13°C / 9°F
Dewpoint -16°C / 3°F
Humidity 78%
Altimeter 29.91" Hg
Pressure 1013 hPa
Elevation 226
METAR KMCD 161035Z AUTO 04008KT 10SM CLR M13/M16 A2991 RMK AO2 T11291162
Observed Flight Rules
Dec-16 @ 10:35 UTC
(34 minutes ago)
VFR
Wind Visibility
40° at 8 knots 10 miles
Clouds
  • Clear skies
Temperature Dewpoint
-13°C / 9°F -16°C / 3°F
Humidity Altimeter Pressure
78% 29.91" Hg 1013 hPa